Mestre Emiliano — CUSN — position and weather

sailwx.info

Track history (hours):
 
Tides and Currents Weather Stations Pressure Air Temp Water Temp Dewpoint Dewpoint Depression Visibility Wind Speed Wind Dir Waves Ship Positions

Mestre Emiliano

Last reported at 2017-Nov-19 12:23 UTC. Time now 2017-Nov-19 14:28 UTC.
Position N 36°51' W 008°03'.

Length 24 m.

Type: Fishing. MMSI: 263237000.

Date/timePositionNaut miles runAvg speedWind from/ knotsBaromVisibWave heightAir tempDewpointWater temp
2017-Nov-19 12:23N 36°51' W 008°03'3 0.4
2017-Nov-19 04:45N 36°51' W 008°07'10 2.8
2017-Nov-19 01:17N 36°51' W 008°19'1 3.2
2017-Nov-19 00:57N 36°51' W 008°20'1 3.0
2017-Nov-19 00:30N 36°52' W 008°22'2 3.2
2017-Nov-19 00:00N 36°53' W 008°23'2 3.2
2017-Nov-18 23:30N 36°53' W 008°25'2 3.1
2017-Nov-18 23:00N 36°53' W 008°27'2 3.0
2017-Nov-18 22:30N 36°53' W 008°29'1 1.6
2017-Nov-18 22:00N 36°52' W 008°28'2 3.0
2017-Nov-18 21:30N 36°52' W 008°26'3 2.9
2017-Nov-18 20:31N 36°51' W 008°23'0 3.1
2017-Nov-18 20:30N 36°51' W 008°23'2 2.9
2017-Nov-18 19:50N 36°51' W 008°20'2 2.9
2017-Nov-18 19:03N 36°50' W 008°17'0 2.9
2017-Nov-18 18:56N 36°51' W 008°17'2 3.0
2017-Nov-18 18:09N 36°51' W 008°14'1 3.7
2017-Nov-18 18:00N 36°50' W 008°13'44 3.1
2017-Nov-18 03:44N 36°51' W 009°08'1 3.0
2017-Nov-18 03:28N 36°52' W 009°08'3 3.0
2017-Nov-18 02:21N 36°56' W 009°08'1 3.0
2017-Nov-18 01:55N 36°57' W 009°08'1 2.8
2017-Nov-18 01:27N 36°58' W 009°08'1 2.1
2017-Nov-18 00:59N 36°59' W 009°08'2 4.1
2017-Nov-18 00:31N 37°01' W 009°08'3 1.8
2017-Nov-17 22:41N 36°58' W 009°09'1 3.1
2017-Nov-17 22:29N 36°57' W 009°08'1 3.0
2017-Nov-17 22:00N 36°56' W 009°08'1 3.0
2017-Nov-17 21:30N 36°54' W 009°08'5 2.7
2017-Nov-17 19:34N 36°49' W 009°09'0 2.0
2017-Nov-17 19:30N 36°49' W 009°09'2 3.8
2017-Nov-17 18:59N 36°47' W 009°09'12 5.2
2017-Nov-17 16:41N 36°49' W 008°54'16 1.4
2017-Nov-17 05:26N 36°52' W 008°34'7 9.4
2017-Nov-17 04:42N 36°59' W 008°33'2 9.2
2017-Nov-17 04:30N 37°01' W 008°33'5 9.4
2017-Nov-17 03:59N 37°06' W 008°32'2 4.0
2017-Nov-17 03:22N 37°08' W 008°32'0 0.0
2017-Nov-17 02:19N 37°08' W 008°32'0 0.0
2017-Nov-17 02:00N 37°08' W 008°32'0 0.0
2017-Nov-17 01:30N 37°08' W 008°32'0 0.0
2017-Nov-17 01:00N 37°08' W 008°32'0 0.0
2017-Nov-17 00:30N 37°08' W 008°32'0 0.0
2017-Nov-17 00:00N 37°08' W 008°32'0 0.0
2017-Nov-16 23:30N 37°08' W 008°32'0 0.0
2017-Nov-16 23:00N 37°08' W 008°32'0 0.0
2017-Nov-16 22:30N 37°08' W 008°32'0 0.0
2017-Nov-16 22:00N 37°08' W 008°32'0 0.0
2017-Nov-16 21:30N 37°08' W 008°32'0 0.0
2017-Nov-16 21:00N 37°08' W 008°32'0 0.0
2017-Nov-16 20:30N 37°08' W 008°32'0 0.0
2017-Nov-16 20:00N 37°08' W 008°32'0 0.1
2017-Nov-16 19:30N 37°08' W 008°32'4 8.8
2017-Nov-16 19:00N 37°04' W 008°33'5 9.5
2017-Nov-16 18:30N 36°59' W 008°35'5 9.4
2017-Nov-16 18:00N 36°55' W 008°36'10 1.2
2017-Nov-16 09:31N 36°49' W 008°46'1 2.6
2017-Nov-16 09:16N 36°49' W 008°46'1 3.0
2017-Nov-16 08:59N 36°49' W 008°45'2 2.9
2017-Nov-16 08:25N 36°49' W 008°42'24 2.9
2017-Nov-16 00:20N 36°48' W 008°13'2 7.1
2017-Nov-15 23:59N 36°50' W 008°14'1 2.0
2017-Nov-15 23:29N 36°50' W 008°15'2 2.9
2017-Nov-15 22:47N 36°50' W 008°18'1 3.0
2017-Nov-15 22:30N 36°51' W 008°19'1 3.0
2017-Nov-15 22:00N 36°51' W 008°20'2 3.1
2017-Nov-15 21:30N 36°52' W 008°22'2 2.9
2017-Nov-15 20:59N 36°52' W 008°24'1 3.0
2017-Nov-15 20:30N 36°52' W 008°26'1 3.0
2017-Nov-15 20:00N 36°53' W 008°27'1 2.9
2017-Nov-15 19:30N 36°53' W 008°29'3 6.6
2017-Nov-15 19:00N 36°51' W 008°33'4 0.3
2017-Nov-15 06:22N 36°55' W 008°29'13 2.7
2017-Nov-15 01:28N 36°50' W 008°13'1 3.0
2017-Nov-15 01:00N 36°50' W 008°12'2 2.0
2017-Nov-14 23:50N 36°50' W 008°09'1 3.0
2017-Nov-14 23:28N 36°51' W 008°07'11 0.5
2017-Nov-13 23:56N 36°40' W 008°09'2 1.7
2017-Nov-13 22:50N 36°40' W 008°11'32 1.6
2017-Nov-13 02:00N 37°08' W 008°32'0 0.0
2017-Nov-13 01:30N 37°08' W 008°32'0 0.0
2017-Nov-13 01:00N 37°08' W 008°32'0 0.0
2017-Nov-13 00:30N 37°08' W 008°32'0 0.0
2017-Nov-13 00:00N 37°08' W 008°32'0 0.0
2017-Nov-12 23:30N 37°08' W 008°32'0 0.0
2017-Nov-12 23:00N 37°08' W 008°32'0 0.0
2017-Nov-12 22:30N 37°08' W 008°32'0 0.0
2017-Nov-12 22:00N 37°08' W 008°32'0 0.0
2017-Nov-12 21:30N 37°08' W 008°32'0 0.0
2017-Nov-12 21:00N 37°08' W 008°32'1 1.5
2017-Nov-12 20:30N 37°07' W 008°31'5 9.5
2017-Nov-12 20:00N 37°03' W 008°33'5 9.3
2017-Nov-12 19:30N 36°59' W 008°36'4 8.9
2017-Nov-12 19:00N 36°55' W 008°38'4 8.7
2017-Nov-12 18:30N 36°51' W 008°40'3 6.6
2017-Nov-12 18:00N 36°48' W 008°43'0 0.4
2017-Nov-12 17:30N 36°48' W 008°43'1 0.2
2017-Nov-12 13:16N 36°48' W 008°42'1 4.2
2017-Nov-12 13:00N 36°48' W 008°44'22 2.1
2017-Nov-12 02:14N 36°58' W 009°09'3 0.9
2017-Nov-11 22:24N 36°55' W 009°08'1 2.9
2017-Nov-11 21:59N 36°54' W 009°08'1 2.8
2017-Nov-11 21:29N 36°52' W 009°08'1 2.9
2017-Nov-11 20:58N 36°51' W 009°08'1 2.8
2017-Nov-11 20:30N 36°49' W 009°09'17 3.3
2017-Nov-11 15:16N 36°49' W 008°47'1 3.1
2017-Nov-11 15:00N 36°48' W 008°46'1 0.1
2017-Nov-11 10:19N 36°48' W 008°47'1 3.0
2017-Nov-11 09:57N 36°48' W 008°46'5 0.3
2017-Nov-10 19:41N 36°48' W 008°40'1 3.0
2017-Nov-10 19:28N 36°48' W 008°41'1 2.9
2017-Nov-10 19:00N 36°48' W 008°43'1 2.9
2017-Nov-10 18:30N 36°48' W 008°44'  
Track history (hours):
 
Tides and Currents Weather Stations Pressure Air Temp Water Temp Dewpoint Dewpoint Depression Visibility Wind Speed Wind Dir Waves Ship Positions

Mestre Emiliano

Last reported at 2017-Nov-19 12:23 UTC. Time now 2017-Nov-19 14:28 UTC.
Position N 36°51' W 008°03'.

Length 24 m.

Type: Fishing. MMSI: 263237000.

Date/timePositionNaut miles runAvg speedWind from/ knotsBaromVisibWave heightAir tempDewpointWater temp
2017-Nov-19 12:23N 36°51' W 008°03'3 0.4
2017-Nov-19 04:45N 36°51' W 008°07'10 2.8
2017-Nov-19 01:17N 36°51' W 008°19'1 3.2
2017-Nov-19 00:57N 36°51' W 008°20'1 3.0
2017-Nov-19 00:30N 36°52' W 008°22'2 3.2
2017-Nov-19 00:00N 36°53' W 008°23'2 3.2
2017-Nov-18 23:30N 36°53' W 008°25'2 3.1
2017-Nov-18 23:00N 36°53' W 008°27'2 3.0
2017-Nov-18 22:30N 36°53' W 008°29'1 1.6
2017-Nov-18 22:00N 36°52' W 008°28'2 3.0
2017-Nov-18 21:30N 36°52' W 008°26'3 2.9
2017-Nov-18 20:31N 36°51' W 008°23'0 3.1
2017-Nov-18 20:30N 36°51' W 008°23'2 2.9
2017-Nov-18 19:50N 36°51' W 008°20'2 2.9
2017-Nov-18 19:03N 36°50' W 008°17'0 2.9
2017-Nov-18 18:56N 36°51' W 008°17'2 3.0
2017-Nov-18 18:09N 36°51' W 008°14'1 3.7
2017-Nov-18 18:00N 36°50' W 008°13'44 3.1
2017-Nov-18 03:44N 36°51' W 009°08'1 3.0
2017-Nov-18 03:28N 36°52' W 009°08'3 3.0
2017-Nov-18 02:21N 36°56' W 009°08'1 3.0
2017-Nov-18 01:55N 36°57' W 009°08'1 2.8
2017-Nov-18 01:27N 36°58' W 009°08'1 2.1
2017-Nov-18 00:59N 36°59' W 009°08'2 4.1
2017-Nov-18 00:31N 37°01' W 009°08'3 1.8
2017-Nov-17 22:41N 36°58' W 009°09'1 3.1
2017-Nov-17 22:29N 36°57' W 009°08'1 3.0
2017-Nov-17 22:00N 36°56' W 009°08'1 3.0
2017-Nov-17 21:30N 36°54' W 009°08'5 2.7
2017-Nov-17 19:34N 36°49' W 009°09'0 2.0
2017-Nov-17 19:30N 36°49' W 009°09'2 3.8
2017-Nov-17 18:59N 36°47' W 009°09'12 5.2
2017-Nov-17 16:41N 36°49' W 008°54'16 1.4
2017-Nov-17 05:26N 36°52' W 008°34'7 9.4
2017-Nov-17 04:42N 36°59' W 008°33'2 9.2
2017-Nov-17 04:30N 37°01' W 008°33'5 9.4
2017-Nov-17 03:59N 37°06' W 008°32'2 4.0
2017-Nov-17 03:22N 37°08' W 008°32'0 0.0
2017-Nov-17 02:19N 37°08' W 008°32'0 0.0
2017-Nov-17 02:00N 37°08' W 008°32'0 0.0
2017-Nov-17 01:30N 37°08' W 008°32'0 0.0
2017-Nov-17 01:00N 37°08' W 008°32'0 0.0
2017-Nov-17 00:30N 37°08' W 008°32'0 0.0
2017-Nov-17 00:00N 37°08' W 008°32'0 0.0
2017-Nov-16 23:30N 37°08' W 008°32'0 0.0
2017-Nov-16 23:00N 37°08' W 008°32'0 0.0
2017-Nov-16 22:30N 37°08' W 008°32'0 0.0
2017-Nov-16 22:00N 37°08' W 008°32'0 0.0
2017-Nov-16 21:30N 37°08' W 008°32'0 0.0
2017-Nov-16 21:00N 37°08' W 008°32'0 0.0
2017-Nov-16 20:30N 37°08' W 008°32'0 0.0
2017-Nov-16 20:00N 37°08' W 008°32'0 0.1
2017-Nov-16 19:30N 37°08' W 008°32'4 8.8
2017-Nov-16 19:00N 37°04' W 008°33'5 9.5
2017-Nov-16 18:30N 36°59' W 008°35'5 9.4
2017-Nov-16 18:00N 36°55' W 008°36'10 1.2
2017-Nov-16 09:31N 36°49' W 008°46'1 2.6
2017-Nov-16 09:16N 36°49' W 008°46'1 3.0
2017-Nov-16 08:59N 36°49' W 008°45'2 2.9
2017-Nov-16 08:25N 36°49' W 008°42'24 2.9
2017-Nov-16 00:20N 36°48' W 008°13'2 7.1
2017-Nov-15 23:59N 36°50' W 008°14'1 2.0
2017-Nov-15 23:29N 36°50' W 008°15'2 2.9
2017-Nov-15 22:47N 36°50' W 008°18'1 3.0
2017-Nov-15 22:30N 36°51' W 008°19'1 3.0
2017-Nov-15 22:00N 36°51' W 008°20'2 3.1
2017-Nov-15 21:30N 36°52' W 008°22'2 2.9
2017-Nov-15 20:59N 36°52' W 008°24'1 3.0
2017-Nov-15 20:30N 36°52' W 008°26'1 3.0
2017-Nov-15 20:00N 36°53' W 008°27'1 2.9
2017-Nov-15 19:30N 36°53' W 008°29'3 6.6
2017-Nov-15 19:00N 36°51' W 008°33'4 0.3
2017-Nov-15 06:22N 36°55' W 008°29'13 2.7
2017-Nov-15 01:28N 36°50' W 008°13'1 3.0
2017-Nov-15 01:00N 36°50' W 008°12'2 2.0
2017-Nov-14 23:50N 36°50' W 008°09'1 3.0
2017-Nov-14 23:28N 36°51' W 008°07'11 0.5
2017-Nov-13 23:56N 36°40' W 008°09'2 1.7
2017-Nov-13 22:50N 36°40' W 008°11'32 1.6
2017-Nov-13 02:00N 37°08' W 008°32'0 0.0
2017-Nov-13 01:30N 37°08' W 008°32'0 0.0
2017-Nov-13 01:00N 37°08' W 008°32'0 0.0
2017-Nov-13 00:30N 37°08' W 008°32'0 0.0
2017-Nov-13 00:00N 37°08' W 008°32'0 0.0
2017-Nov-12 23:30N 37°08' W 008°32'0 0.0
2017-Nov-12 23:00N 37°08' W 008°32'0 0.0
2017-Nov-12 22:30N 37°08' W 008°32'0 0.0
2017-Nov-12 22:00N 37°08' W 008°32'0 0.0
2017-Nov-12 21:30N 37°08' W 008°32'0 0.0
2017-Nov-12 21:00N 37°08' W 008°32'1 1.5
2017-Nov-12 20:30N 37°07' W 008°31'5 9.5
2017-Nov-12 20:00N 37°03' W 008°33'5 9.3
2017-Nov-12 19:30N 36°59' W 008°36'4 8.9
2017-Nov-12 19:00N 36°55' W 008°38'4 8.7
2017-Nov-12 18:30N 36°51' W 008°40'3 6.6
2017-Nov-12 18:00N 36°48' W 008°43'0 0.4
2017-Nov-12 17:30N 36°48' W 008°43'1 0.2
2017-Nov-12 13:16N 36°48' W 008°42'1 4.2
2017-Nov-12 13:00N 36°48' W 008°44'22 2.1
2017-Nov-12 02:14N 36°58' W 009°09'3 0.9
2017-Nov-11 22:24N 36°55' W 009°08'1 2.9
2017-Nov-11 21:59N 36°54' W 009°08'1 2.8
2017-Nov-11 21:29N 36°52' W 009°08'1 2.9
2017-Nov-11 20:58N 36°51' W 009°08'1 2.8
2017-Nov-11 20:30N 36°49' W 009°09'17 3.3
2017-Nov-11 15:16N 36°49' W 008°47'1 3.1
2017-Nov-11 15:00N 36°48' W 008°46'1 0.1
2017-Nov-11 10:19N 36°48' W 008°47'1 3.0
2017-Nov-11 09:57N 36°48' W 008°46'5 0.3
2017-Nov-10 19:41N 36°48' W 008°40'1 3.0
2017-Nov-10 19:28N 36°48' W 008°41'1 2.9
2017-Nov-10 19:00N 36°48' W 008°43'1 2.9
2017-Nov-10 18:30N 36°48' W 008°44'  

Dump ship's entire track history